Terminal Aerodrome Forecast
Issued by NWS Grand Forks, ND

Home | Current Version | Previous Version | Text Only | Print | Product List | Glossary Off
Versions: 1 2 3 4 5 6 7 8 9 10 11 12 13 14 15 16 17 18 19 20 21

000
FTUS43 KFGF 262000 AAB
TAFFAR
TAF AMD
KFAR 262040Z 2621/2718 35015KT P6SM BKN030
     FM270000 34006KT P6SM BKN120
     FM271200 17007KT P6SM BKN050=

USA.gov is the U.S. government's official web portal to all federal, state and local government web resources and services.